sensor_id;sensor_type;location;lat;lon;timestamp;temperature;humidity
41644;DHT22;44236;48.098;11.582;2023-02-18T00:02:17;20.40;49.50
41644;DHT22;44236;48.098;11.582;2023-02-18T00:04:44;20.40;49.50
41644;DHT22;44236;48.098;11.582;2023-02-18T00:07:09;20.30;49.60
41644;DHT22;44236;48.098;11.582;2023-02-18T00:09:36;20.30;49.60
41644;DHT22;44236;48.098;11.582;2023-02-18T00:12:02;20.30;49.80
41644;DHT22;44236;48.098;11.582;2023-02-18T00:14:28;20.30;49.80
41644;DHT22;44236;48.098;11.582;2023-02-18T00:16:54;20.30;49.80
41644;DHT22;44236;48.098;11.582;2023-02-18T00:19:19;20.30;49.90
41644;DHT22;44236;48.098;11.582;2023-02-18T00:21:45;20.40;50.20
41644;DHT22;44236;48.098;11.582;2023-02-18T00:24:13;20.30;50.40
41644;DHT22;44236;48.098;11.582;2023-02-18T00:26:40;20.30;50.30
41644;DHT22;44236;48.098;11.582;2023-02-18T00:29:05;20.30;50.50
41644;DHT22;44236;48.098;11.582;2023-02-18T00:31:34;20.30;50.50
41644;DHT22;44236;48.098;11.582;2023-02-18T00:34:02;20.30;50.70
41644;DHT22;44236;48.098;11.582;2023-02-18T00:36:28;20.30;50.90
41644;DHT22;44236;48.098;11.582;2023-02-18T00:38:58;20.30;50.80
41644;DHT22;44236;48.098;11.582;2023-02-18T00:41:27;20.30;50.70
41644;DHT22;44236;48.098;11.582;2023-02-18T00:43:53;20.30;50.70
41644;DHT22;44236;48.098;11.582;2023-02-18T00:46:19;20.30;50.90
41644;DHT22;44236;48.098;11.582;2023-02-18T00:48:45;20.30;51.00
41644;DHT22;44236;48.098;11.582;2023-02-18T00:51:11;20.30;50.90
41644;DHT22;44236;48.098;11.582;2023-02-18T00:53:38;20.30;50.80
41644;DHT22;44236;48.098;11.582;2023-02-18T00:56:04;20.30;50.90
41644;DHT22;44236;48.098;11.582;2023-02-18T00:58:30;20.30;50.90
41644;DHT22;44236;48.098;11.582;2023-02-18T01:00:56;20.30;51.00
41644;DHT22;44236;48.098;11.582;2023-02-18T01:03:22;20.30;50.60
41644;DHT22;44236;48.098;11.582;2023-02-18T01:05:49;20.30;51.10
41644;DHT22;44236;48.098;11.582;2023-02-18T01:08:16;20.30;51.20
41644;DHT22;44236;48.098;11.582;2023-02-18T01:10:45;20.30;51.20
41644;DHT22;44236;48.098;11.582;2023-02-18T01:13:12;20.30;50.90
41644;DHT22;44236;48.098;11.582;2023-02-18T01:15:38;20.30;50.80
41644;DHT22;44236;48.098;11.582;2023-02-18T01:18:05;20.30;51.10
41644;DHT22;44236;48.098;11.582;2023-02-18T01:20:32;20.30;51.30
41644;DHT22;44236;48.098;11.582;2023-02-18T01:22:58;20.30;50.80
41644;DHT22;44236;48.098;11.582;2023-02-18T01:25:23;20.30;51.00
41644;DHT22;44236;48.098;11.582;2023-02-18T01:27:49;20.30;51.00
41644;DHT22;44236;48.098;11.582;2023-02-18T01:30:17;20.30;50.60
41644;DHT22;44236;48.098;11.582;2023-02-18T01:32:43;20.30;51.20
41644;DHT22;44236;48.098;11.582;2023-02-18T01:35:12;20.30;50.90
41644;DHT22;44236;48.098;11.582;2023-02-18T01:37:38;20.30;50.90
41644;DHT22;44236;48.098;11.582;2023-02-18T01:40:07;20.30;51.10
41644;DHT22;44236;48.098;11.582;2023-02-18T01:42:33;20.30;50.70
41644;DHT22;44236;48.098;11.582;2023-02-18T01:48:05;20.30;51.20
41644;DHT22;44236;48.098;11.582;2023-02-18T01:50:35;20.30;51.00
41644;DHT22;44236;48.098;11.582;2023-02-18T01:53:01;20.30;51.10
41644;DHT22;44236;48.098;11.582;2023-02-18T01:55:28;20.30;51.00
41644;DHT22;44236;48.098;11.582;2023-02-18T01:57:54;20.30;50.90
41644;DHT22;44236;48.098;11.582;2023-02-18T02:00:19;20.30;51.10
41644;DHT22;44236;48.098;11.582;2023-02-18T02:02:51;20.30;51.10
41644;DHT22;44236;48.098;11.582;2023-02-18T02:05:19;20.30;51.20
41644;DHT22;44236;48.098;11.582;2023-02-18T02:07:46;20.30;50.90
41644;DHT22;44236;48.098;11.582;2023-02-18T02:10:13;20.30;51.20
41644;DHT22;44236;48.098;11.582;2023-02-18T02:18:28;20.30;50.80
41644;DHT22;44236;48.098;11.582;2023-02-18T02:27:11;20.30;50.50
41644;DHT22;44236;48.098;11.582;2023-02-18T02:35:25;20.20;50.60
41644;DHT22;44236;48.098;11.582;2023-02-18T02:38:19;20.30;51.30
41644;DHT22;44236;48.098;11.582;2023-02-18T02:41:24;20.20;50.80
41644;DHT22;44236;48.098;11.582;2023-02-18T02:46:36;20.20;50.90
41644;DHT22;44236;48.098;11.582;2023-02-18T02:51:53;20.30;51.00
41644;DHT22;44236;48.098;11.582;2023-02-18T02:54:24;20.20;51.00
41644;DHT22;44236;48.098;11.582;2023-02-18T02:57:00;20.20;51.00
41644;DHT22;44236;48.098;11.582;2023-02-18T02:59:28;20.20;50.60
41644;DHT22;44236;48.098;11.582;2023-02-18T03:04:51;20.30;50.90
41644;DHT22;44236;48.098;11.582;2023-02-18T03:15:36;20.30;50.80
41644;DHT22;44236;48.098;11.582;2023-02-18T03:20:50;20.20;50.40
41644;DHT22;44236;48.098;11.582;2023-02-18T03:23:24;20.20;50.90
41644;DHT22;44236;48.098;11.582;2023-02-18T03:25:52;20.30;50.90
41644;DHT22;44236;48.098;11.582;2023-02-18T03:28:21;20.20;51.00
41644;DHT22;44236;48.098;11.582;2023-02-18T03:30:52;20.20;50.70
41644;DHT22;44236;48.098;11.582;2023-02-18T03:33:41;20.30;50.90
41644;DHT22;44236;48.098;11.582;2023-02-18T03:36:09;20.20;50.90
41644;DHT22;44236;48.098;11.582;2023-02-18T03:41:15;20.20;51.10
41644;DHT22;44236;48.098;11.582;2023-02-18T03:43:52;20.20;51.00
41644;DHT22;44236;48.098;11.582;2023-02-18T03:46:18;20.20;50.90
41644;DHT22;44236;48.098;11.582;2023-02-18T03:48:44;20.20;50.50
41644;DHT22;44236;48.098;11.582;2023-02-18T03:51:09;20.20;50.60
41644;DHT22;44236;48.098;11.582;2023-02-18T03:53:35;20.20;50.70
41644;DHT22;44236;48.098;11.582;2023-02-18T03:56:00;20.30;50.80
41644;DHT22;44236;48.098;11.582;2023-02-18T03:58:26;20.20;50.90
41644;DHT22;44236;48.098;11.582;2023-02-18T04:00:52;20.30;51.00
41644;DHT22;44236;48.098;11.582;2023-02-18T04:03:17;20.30;51.00
41644;DHT22;44236;48.098;11.582;2023-02-18T04:05:43;20.30;50.60
41644;DHT22;44236;48.098;11.582;2023-02-18T04:08:08;20.20;50.20
41644;DHT22;44236;48.098;11.582;2023-02-18T04:10:34;20.20;50.70
41644;DHT22;44236;48.098;11.582;2023-02-18T04:13:00;20.20;50.40
41644;DHT22;44236;48.098;11.582;2023-02-18T04:15:25;20.20;50.40
41644;DHT22;44236;48.098;11.582;2023-02-18T04:17:51;20.20;50.40
41644;DHT22;44236;48.098;11.582;2023-02-18T04:20:17;20.20;50.20
41644;DHT22;44236;48.098;11.582;2023-02-18T04:22:43;20.20;50.70
41644;DHT22;44236;48.098;11.582;2023-02-18T04:25:08;20.20;51.00
41644;DHT22;44236;48.098;11.582;2023-02-18T04:27:34;20.20;50.40
41644;DHT22;44236;48.098;11.582;2023-02-18T04:30:00;20.20;51.00
41644;DHT22;44236;48.098;11.582;2023-02-18T04:32:25;20.20;51.10
41644;DHT22;44236;48.098;11.582;2023-02-18T04:34:51;20.20;51.00
41644;DHT22;44236;48.098;11.582;2023-02-18T04:37:17;20.20;51.00
41644;DHT22;44236;48.098;11.582;2023-02-18T04:39:42;20.20;51.20
41644;DHT22;44236;48.098;11.582;2023-02-18T04:42:08;20.20;50.50
41644;DHT22;44236;48.098;11.582;2023-02-18T04:44:37;20.20;51.10
41644;DHT22;44236;48.098;11.582;2023-02-18T04:47:05;20.20;51.10
41644;DHT22;44236;48.098;11.582;2023-02-18T04:49:31;20.20;51.20
41644;DHT22;44236;48.098;11.582;2023-02-18T04:51:56;20.20;51.10
41644;DHT22;44236;48.098;11.582;2023-02-18T04:54:22;20.30;50.80
41644;DHT22;44236;48.098;11.582;2023-02-18T04:56:48;20.20;51.20
41644;DHT22;44236;48.098;11.582;2023-02-18T04:59:13;20.20;51.00
41644;DHT22;44236;48.098;11.582;2023-02-18T05:01:39;20.20;51.10
41644;DHT22;44236;48.098;11.582;2023-02-18T05:04:05;20.20;51.00
41644;DHT22;44236;48.098;11.582;2023-02-18T05:06:30;20.20;51.70
41644;DHT22;44236;48.098;11.582;2023-02-18T05:08:56;20.20;51.20
41644;DHT22;44236;48.098;11.582;2023-02-18T05:11:22;20.20;51.20
41644;DHT22;44236;48.098;11.582;2023-02-18T05:13:47;20.20;51.40
41644;DHT22;44236;48.098;11.582;2023-02-18T05:16:13;20.20;51.30
41644;DHT22;44236;48.098;11.582;2023-02-18T05:18:39;20.20;51.40
41644;DHT22;44236;48.098;11.582;2023-02-18T05:21:05;20.20;51.60
41644;DHT22;44236;48.098;11.582;2023-02-18T05:23:30;20.20;50.80
41644;DHT22;44236;48.098;11.582;2023-02-18T05:25:56;20.20;51.10
41644;DHT22;44236;48.098;11.582;2023-02-18T05:28:22;20.30;51.40
41644;DHT22;44236;48.098;11.582;2023-02-18T05:30:47;20.20;51.30
41644;DHT22;44236;48.098;11.582;2023-02-18T05:33:13;20.20;51.00
41644;DHT22;44236;48.098;11.582;2023-02-18T05:35:39;20.20;51.30
41644;DHT22;44236;48.098;11.582;2023-02-18T05:38:04;20.30;51.40
41644;DHT22;44236;48.098;11.582;2023-02-18T05:40:30;20.20;50.90
41644;DHT22;44236;48.098;11.582;2023-02-18T05:42:56;20.20;51.00
41644;DHT22;44236;48.098;11.582;2023-02-18T05:45:21;20.20;51.30
41644;DHT22;44236;48.098;11.582;2023-02-18T05:47:47;20.20;51.20
41644;DHT22;44236;48.098;11.582;2023-02-18T05:50:13;20.20;50.90
41644;DHT22;44236;48.098;11.582;2023-02-18T05:52:38;20.30;51.60
41644;DHT22;44236;48.098;11.582;2023-02-18T05:55:04;20.20;51.40
41644;DHT22;44236;48.098;11.582;2023-02-18T05:57:30;20.20;51.50
41644;DHT22;44236;48.098;11.582;2023-02-18T05:59:56;20.20;51.30
41644;DHT22;44236;48.098;11.582;2023-02-18T06:02:21;20.20;51.50
41644;DHT22;44236;48.098;11.582;2023-02-18T06:04:47;20.20;51.30
41644;DHT22;44236;48.098;11.582;2023-02-18T06:07:13;20.20;50.70
41644;DHT22;44236;48.098;11.582;2023-02-18T06:09:38;20.20;51.40
41644;DHT22;44236;48.098;11.582;2023-02-18T06:12:04;20.20;51.40
41644;DHT22;44236;48.098;11.582;2023-02-18T06:14:30;20.20;51.30
41644;DHT22;44236;48.098;11.582;2023-02-18T06:16:56;20.30;51.30
41644;DHT22;44236;48.098;11.582;2023-02-18T06:19:21;20.30;51.20
41644;DHT22;44236;48.098;11.582;2023-02-18T06:21:47;20.30;51.20
41644;DHT22;44236;48.098;11.582;2023-02-18T06:24:13;20.30;51.40
41644;DHT22;44236;48.098;11.582;2023-02-18T06:26:38;20.30;51.30
41644;DHT22;44236;48.098;11.582;2023-02-18T06:29:04;20.20;52.10
41644;DHT22;44236;48.098;11.582;2023-02-18T06:31:29;20.20;52.10
41644;DHT22;44236;48.098;11.582;2023-02-18T06:33:55;20.20;51.00
41644;DHT22;44236;48.098;11.582;2023-02-18T06:36:21;20.20;50.80
41644;DHT22;44236;48.098;11.582;2023-02-18T06:38:46;20.20;50.60
41644;DHT22;44236;48.098;11.582;2023-02-18T06:41:13;20.20;49.80
41644;DHT22;44236;48.098;11.582;2023-02-18T06:43:39;20.20;49.70
41644;DHT22;44236;48.098;11.582;2023-02-18T06:46:05;20.20;49.30
41644;DHT22;44236;48.098;11.582;2023-02-18T06:48:31;20.20;49.20
41644;DHT22;44236;48.098;11.582;2023-02-18T06:50:58;20.20;49.40
41644;DHT22;44236;48.098;11.582;2023-02-18T06:53:24;20.20;48.60
41644;DHT22;44236;48.098;11.582;2023-02-18T06:55:49;20.10;48.30
41644;DHT22;44236;48.098;11.582;2023-02-18T06:58:15;20.20;47.80
41644;DHT22;44236;48.098;11.582;2023-02-18T07:00:42;20.20;47.90
41644;DHT22;44236;48.098;11.582;2023-02-18T07:03:08;20.20;47.60
41644;DHT22;44236;48.098;11.582;2023-02-18T07:05:35;20.20;46.70
41644;DHT22;44236;48.098;11.582;2023-02-18T07:08:01;20.20;47.50
41644;DHT22;44236;48.098;11.582;2023-02-18T07:10:26;20.20;47.20
41644;DHT22;44236;48.098;11.582;2023-02-18T07:12:52;20.20;47.40
41644;DHT22;44236;48.098;11.582;2023-02-18T07:15:18;20.20;47.10
41644;DHT22;44236;48.098;11.582;2023-02-18T07:17:51;20.20;46.90
41644;DHT22;44236;48.098;11.582;2023-02-18T07:20:18;20.20;47.20
41644;DHT22;44236;48.098;11.582;2023-02-18T07:22:44;20.20;45.50
41644;DHT22;44236;48.098;11.582;2023-02-18T07:25:10;20.00;44.40
41644;DHT22;44236;48.098;11.582;2023-02-18T07:27:36;19.90;44.00
41644;DHT22;44236;48.098;11.582;2023-02-18T07:30:02;19.80;44.10
41644;DHT22;44236;48.098;11.582;2023-02-18T07:32:27;19.80;44.30
41644;DHT22;44236;48.098;11.582;2023-02-18T07:34:53;19.70;44.90
41644;DHT22;44236;48.098;11.582;2023-02-18T07:37:19;19.70;45.50
41644;DHT22;44236;48.098;11.582;2023-02-18T07:39:45;19.70;45.60
41644;DHT22;44236;48.098;11.582;2023-02-18T07:42:11;19.70;45.60
41644;DHT22;44236;48.098;11.582;2023-02-18T07:44:38;19.70;45.70
41644;DHT22;44236;48.098;11.582;2023-02-18T07:47:05;19.80;45.60
41644;DHT22;44236;48.098;11.582;2023-02-18T07:49:33;19.80;45.70
41644;DHT22;44236;48.098;11.582;2023-02-18T07:52:00;19.80;46.00
41644;DHT22;44236;48.098;11.582;2023-02-18T07:54:25;19.80;46.10
41644;DHT22;44236;48.098;11.582;2023-02-18T07:56:51;19.80;46.30
41644;DHT22;44236;48.098;11.582;2023-02-18T07:59:17;19.90;46.40
41644;DHT22;44236;48.098;11.582;2023-02-18T08:01:43;19.90;46.60
41644;DHT22;44236;48.098;11.582;2023-02-18T08:04:08;19.90;46.60
41644;DHT22;44236;48.098;11.582;2023-02-18T08:06:39;20.00;47.30
41644;DHT22;44236;48.098;11.582;2023-02-18T08:09:06;20.00;47.30
41644;DHT22;44236;48.098;11.582;2023-02-18T08:11:32;20.00;47.20
41644;DHT22;44236;48.098;11.582;2023-02-18T08:13:58;20.00;47.30
41644;DHT22;44236;48.098;11.582;2023-02-18T08:16:24;20.00;47.30
41644;DHT22;44236;48.098;11.582;2023-02-18T08:18:50;20.00;47.20
41644;DHT22;44236;48.098;11.582;2023-02-18T08:21:17;20.00;47.20
41644;DHT22;44236;48.098;11.582;2023-02-18T08:23:43;20.00;47.20
41644;DHT22;44236;48.098;11.582;2023-02-18T08:26:09;20.00;47.10
41644;DHT22;44236;48.098;11.582;2023-02-18T08:28:35;20.00;47.10
41644;DHT22;44236;48.098;11.582;2023-02-18T08:31:01;20.00;46.90
41644;DHT22;44236;48.098;11.582;2023-02-18T08:33:26;20.00;47.00
41644;DHT22;44236;48.098;11.582;2023-02-18T08:35:53;20.10;47.00
41644;DHT22;44236;48.098;11.582;2023-02-18T08:38:20;20.10;46.90
41644;DHT22;44236;48.098;11.582;2023-02-18T08:40:46;20.10;46.90
41644;DHT22;44236;48.098;11.582;2023-02-18T08:43:12;20.10;47.00
41644;DHT22;44236;48.098;11.582;2023-02-18T08:45:39;20.10;46.90
41644;DHT22;44236;48.098;11.582;2023-02-18T08:48:06;20.10;46.70
41644;DHT22;44236;48.098;11.582;2023-02-18T08:50:33;20.10;46.80
41644;DHT22;44236;48.098;11.582;2023-02-18T08:52:58;20.10;46.50
41644;DHT22;44236;48.098;11.582;2023-02-18T08:55:30;20.10;45.70
41644;DHT22;44236;48.098;11.582;2023-02-18T08:57:56;20.10;46.00
41644;DHT22;44236;48.098;11.582;2023-02-18T09:00:23;20.10;46.60
41644;DHT22;44236;48.098;11.582;2023-02-18T09:02:48;20.10;46.50
41644;DHT22;44236;48.098;11.582;2023-02-18T09:05:15;20.10;46.30
41644;DHT22;44236;48.098;11.582;2023-02-18T09:07:40;20.10;46.30
41644;DHT22;44236;48.098;11.582;2023-02-18T09:10:07;20.20;46.50
41644;DHT22;44236;48.098;11.582;2023-02-18T09:12:34;20.20;46.40
41644;DHT22;44236;48.098;11.582;2023-02-18T09:15:00;20.20;46.40
41644;DHT22;44236;48.098;11.582;2023-02-18T09:17:26;20.20;46.50
41644;DHT22;44236;48.098;11.582;2023-02-18T09:19:52;20.20;46.50
41644;DHT22;44236;48.098;11.582;2023-02-18T09:22:18;20.20;46.40
41644;DHT22;44236;48.098;11.582;2023-02-18T09:24:44;20.20;46.50
41644;DHT22;44236;48.098;11.582;2023-02-18T09:27:09;20.20;46.50
41644;DHT22;44236;48.098;11.582;2023-02-18T09:29:37;20.20;46.50
41644;DHT22;44236;48.098;11.582;2023-02-18T09:32:04;20.20;46.60
41644;DHT22;44236;48.098;11.582;2023-02-18T09:34:30;20.30;46.40
41644;DHT22;44236;48.098;11.582;2023-02-18T09:36:56;20.30;46.40
41644;DHT22;44236;48.098;11.582;2023-02-18T09:39:22;20.30;46.50
41644;DHT22;44236;48.098;11.582;2023-02-18T09:41:50;20.30;46.40
41644;DHT22;44236;48.098;11.582;2023-02-18T09:47:17;20.30;46.40
41644;DHT22;44236;48.098;11.582;2023-02-18T09:49:47;20.40;46.70
41644;DHT22;44236;48.098;11.582;2023-02-18T09:52:37;20.30;46.60
41644;DHT22;44236;48.098;11.582;2023-02-18T09:55:17;20.30;46.50
41644;DHT22;44236;48.098;11.582;2023-02-18T09:57:45;20.40;46.40
41644;DHT22;44236;48.098;11.582;2023-02-18T10:02:47;20.40;46.30
41644;DHT22;44236;48.098;11.582;2023-02-18T10:05:14;20.40;46.00
41644;DHT22;44236;48.098;11.582;2023-02-18T10:07:41;20.40;45.80
41644;DHT22;44236;48.098;11.582;2023-02-18T10:10:30;20.50;45.80
41644;DHT22;44236;48.098;11.582;2023-02-18T10:12:58;20.50;45.80
41644;DHT22;44236;48.098;11.582;2023-02-18T10:15:30;20.50;45.80
41644;DHT22;44236;48.098;11.582;2023-02-18T10:17:57;20.50;45.70
41644;DHT22;44236;48.098;11.582;2023-02-18T10:20:27;20.50;45.90
41644;DHT22;44236;48.098;11.582;2023-02-18T10:22:56;20.50;46.00
41644;DHT22;44236;48.098;11.582;2023-02-18T10:25:23;20.50;45.70
41644;DHT22;44236;48.098;11.582;2023-02-18T10:27:51;20.60;46.20
41644;DHT22;44236;48.098;11.582;2023-02-18T10:30:45;20.60;46.30
41644;DHT22;44236;48.098;11.582;2023-02-18T10:35:49;20.60;46.00
41644;DHT22;44236;48.098;11.582;2023-02-18T10:47:15;20.60;45.90
41644;DHT22;44236;48.098;11.582;2023-02-18T10:50:02;20.60;45.90
41644;DHT22;44236;48.098;11.582;2023-02-18T10:52:37;20.60;45.90
41644;DHT22;44236;48.098;11.582;2023-02-18T10:55:07;20.60;45.90
41644;DHT22;44236;48.098;11.582;2023-02-18T10:57:48;20.60;45.90
41644;DHT22;44236;48.098;11.582;2023-02-18T11:02:43;20.70;46.00
41644;DHT22;44236;48.098;11.582;2023-02-18T11:05:22;20.60;46.00
41644;DHT22;44236;48.098;11.582;2023-02-18T11:07:50;20.70;46.10
41644;DHT22;44236;48.098;11.582;2023-02-18T11:10:31;20.70;46.10
41644;DHT22;44236;48.098;11.582;2023-02-18T11:13:07;20.70;46.30
41644;DHT22;44236;48.098;11.582;2023-02-18T11:15:34;20.70;46.10
41644;DHT22;44236;48.098;11.582;2023-02-18T11:20:56;20.70;46.30
41644;DHT22;44236;48.098;11.582;2023-02-18T11:23:22;20.70;46.20
41644;DHT22;44236;48.098;11.582;2023-02-18T11:26:11;20.70;46.20
41644;DHT22;44236;48.098;11.582;2023-02-18T11:28:43;20.70;46.30
41644;DHT22;44236;48.098;11.582;2023-02-18T11:31:15;20.70;46.20
41644;DHT22;44236;48.098;11.582;2023-02-18T11:34:00;20.80;46.40
41644;DHT22;44236;48.098;11.582;2023-02-18T11:36:30;20.80;46.40
41644;DHT22;44236;48.098;11.582;2023-02-18T11:39:02;20.80;46.30
41644;DHT22;44236;48.098;11.582;2023-02-18T11:41:41;20.80;46.40
41644;DHT22;44236;48.098;11.582;2023-02-18T11:44:23;20.80;46.70
41644;DHT22;44236;48.098;11.582;2023-02-18T11:47:00;20.80;46.50
41644;DHT22;44236;48.098;11.582;2023-02-18T11:49:26;20.80;46.50
41644;DHT22;44236;48.098;11.582;2023-02-18T11:51:54;20.80;46.40
41644;DHT22;44236;48.098;11.582;2023-02-18T11:54:29;20.80;46.50
41644;DHT22;44236;48.098;11.582;2023-02-18T11:56:57;20.90;46.60
41644;DHT22;44236;48.098;11.582;2023-02-18T11:59:23;20.90;47.00
41644;DHT22;44236;48.098;11.582;2023-02-18T12:01:58;20.90;47.00
41644;DHT22;44236;48.098;11.582;2023-02-18T12:04:35;20.90;47.00
41644;DHT22;44236;48.098;11.582;2023-02-18T12:07:24;20.90;47.70
41644;DHT22;44236;48.098;11.582;2023-02-18T12:10:02;20.90;47.70
41644;DHT22;44236;48.098;11.582;2023-02-18T12:12:42;20.90;48.30
41644;DHT22;44236;48.098;11.582;2023-02-18T12:15:15;20.80;46.60
41644;DHT22;44236;48.098;11.582;2023-02-18T12:17:56;20.60;44.60
41644;DHT22;44236;48.098;11.582;2023-02-18T12:32:04;20.30;45.90
41644;DHT22;44236;48.098;11.582;2023-02-18T12:43:26;20.60;47.70
41644;DHT22;44236;48.098;11.582;2023-02-18T12:46:32;20.60;47.60
41644;DHT22;44236;48.098;11.582;2023-02-18T12:56:56;20.70;47.60
41644;DHT22;44236;48.098;11.582;2023-02-18T13:05:11;20.70;47.80
41644;DHT22;44236;48.098;11.582;2023-02-18T13:10:33;20.80;48.00
41644;DHT22;44236;48.098;11.582;2023-02-18T13:13:30;20.80;48.00
41644;DHT22;44236;48.098;11.582;2023-02-18T13:16:02;20.80;47.80
41644;DHT22;44236;48.098;11.582;2023-02-18T13:18:49;20.80;47.80
41644;DHT22;44236;48.098;11.582;2023-02-18T13:21:18;20.80;48.00
41644;DHT22;44236;48.098;11.582;2023-02-18T13:23:50;20.80;47.90
41644;DHT22;44236;48.098;11.582;2023-02-18T13:26:17;20.90;47.40
41644;DHT22;44236;48.098;11.582;2023-02-18T13:32:06;20.90;47.70
41644;DHT22;44236;48.098;11.582;2023-02-18T13:40:26;20.80;47.90
41644;DHT22;44236;48.098;11.582;2023-02-18T13:42:57;20.90;47.80
41644;DHT22;44236;48.098;11.582;2023-02-18T13:45:40;20.90;48.00
41644;DHT22;44236;48.098;11.582;2023-02-18T13:48:21;20.90;48.00
41644;DHT22;44236;48.098;11.582;2023-02-18T13:50:47;20.90;48.30
41644;DHT22;44236;48.098;11.582;2023-02-18T13:53:18;20.90;48.30
41644;DHT22;44236;48.098;11.582;2023-02-18T13:56:03;20.90;48.30
41644;DHT22;44236;48.098;11.582;2023-02-18T13:58:42;20.90;48.30
41644;DHT22;44236;48.098;11.582;2023-02-18T14:06:13;20.90;48.30
41644;DHT22;44236;48.098;11.582;2023-02-18T14:08:39;20.90;48.10
41644;DHT22;44236;48.098;11.582;2023-02-18T14:13:48;20.90;48.40
41644;DHT22;44236;48.098;11.582;2023-02-18T14:16:18;20.90;48.30
41644;DHT22;44236;48.098;11.582;2023-02-18T14:26:23;20.90;48.20
41644;DHT22;44236;48.098;11.582;2023-02-18T14:29:00;21.00;48.20
41644;DHT22;44236;48.098;11.582;2023-02-18T14:50:14;20.10;43.30
41644;DHT22;44236;48.098;11.582;2023-02-18T14:52:48;20.10;43.10
41644;DHT22;44236;48.098;11.582;2023-02-18T14:55:26;20.20;43.10
41644;DHT22;44236;48.098;11.582;2023-02-18T14:58:05;20.20;42.90
41644;DHT22;44236;48.098;11.582;2023-02-18T15:00:34;20.20;43.00
41644;DHT22;44236;48.098;11.582;2023-02-18T15:03:03;20.20;42.90
41644;DHT22;44236;48.098;11.582;2023-02-18T15:05:37;20.20;42.90
41644;DHT22;44236;48.098;11.582;2023-02-18T15:08:05;20.20;42.80
41644;DHT22;44236;48.098;11.582;2023-02-18T15:13:01;20.20;43.40
41644;DHT22;44236;48.098;11.582;2023-02-18T15:15:27;20.20;43.30
41644;DHT22;44236;48.098;11.582;2023-02-18T15:17:53;20.30;43.30
41644;DHT22;44236;48.098;11.582;2023-02-18T15:20:19;20.30;42.80
41644;DHT22;44236;48.098;11.582;2023-02-18T15:22:44;20.30;43.50
41644;DHT22;44236;48.098;11.582;2023-02-18T15:25:12;20.30;43.20
41644;DHT22;44236;48.098;11.582;2023-02-18T15:27:40;20.30;43.30
41644;DHT22;44236;48.098;11.582;2023-02-18T15:30:29;20.30;43.50
41644;DHT22;44236;48.098;11.582;2023-02-18T15:32:57;20.30;42.70
41644;DHT22;44236;48.098;11.582;2023-02-18T15:35:26;20.20;42.80
41644;DHT22;44236;48.098;11.582;2023-02-18T15:37:56;20.10;43.10
41644;DHT22;44236;48.098;11.582;2023-02-18T15:40:31;20.10;42.60
41644;DHT22;44236;48.098;11.582;2023-02-18T15:42:59;20.00;42.30
41644;DHT22;44236;48.098;11.582;2023-02-18T15:45:33;20.00;42.40
41644;DHT22;44236;48.098;11.582;2023-02-18T15:48:00;20.00;42.50
41644;DHT22;44236;48.098;11.582;2023-02-18T15:50:34;19.90;42.20
41644;DHT22;44236;48.098;11.582;2023-02-18T15:53:07;19.90;42.50
41644;DHT22;44236;48.098;11.582;2023-02-18T15:55:37;20.00;41.90
41644;DHT22;44236;48.098;11.582;2023-02-18T15:58:39;20.00;42.00
41644;DHT22;44236;48.098;11.582;2023-02-18T16:01:06;20.00;42.00
41644;DHT22;44236;48.098;11.582;2023-02-18T16:03:48;20.00;42.00
41644;DHT22;44236;48.098;11.582;2023-02-18T16:06:28;19.90;42.30
41644;DHT22;44236;48.098;11.582;2023-02-18T16:09:13;20.00;42.50
41644;DHT22;44236;48.098;11.582;2023-02-18T16:11:46;20.00;41.90
41644;DHT22;44236;48.098;11.582;2023-02-18T16:17:06;19.90;41.80
41644;DHT22;44236;48.098;11.582;2023-02-18T16:19:32;19.80;41.90
41644;DHT22;44236;48.098;11.582;2023-02-18T16:22:03;19.80;42.30
41644;DHT22;44236;48.098;11.582;2023-02-18T16:24:29;19.80;42.20
41644;DHT22;44236;48.098;11.582;2023-02-18T16:26:59;19.70;41.90
41644;DHT22;44236;48.098;11.582;2023-02-18T16:29:35;19.70;42.10
41644;DHT22;44236;48.098;11.582;2023-02-18T16:32:02;19.60;42.30
41644;DHT22;44236;48.098;11.582;2023-02-18T16:34:27;19.60;42.60
41644;DHT22;44236;48.098;11.582;2023-02-18T16:36:54;19.60;42.40
41644;DHT22;44236;48.098;11.582;2023-02-18T16:39:39;19.60;42.50
41644;DHT22;44236;48.098;11.582;2023-02-18T16:42:09;19.50;42.40
41644;DHT22;44236;48.098;11.582;2023-02-18T16:44:36;19.60;42.40
41644;DHT22;44236;48.098;11.582;2023-02-18T16:47:01;19.60;42.50
41644;DHT22;44236;48.098;11.582;2023-02-18T16:49:28;19.60;42.30
41644;DHT22;44236;48.098;11.582;2023-02-18T16:51:54;19.60;42.20
41644;DHT22;44236;48.098;11.582;2023-02-18T16:54:19;19.60;42.50
41644;DHT22;44236;48.098;11.582;2023-02-18T16:56:45;19.70;42.80
41644;DHT22;44236;48.098;11.582;2023-02-18T16:59:10;19.70;42.80
41644;DHT22;44236;48.098;11.582;2023-02-18T17:01:39;19.80;43.00
41644;DHT22;44236;48.098;11.582;2023-02-18T17:04:10;19.90;43.00
41644;DHT22;44236;48.098;11.582;2023-02-18T17:06:36;19.90;43.10
41644;DHT22;44236;48.098;11.582;2023-02-18T17:09:11;20.00;43.20
41644;DHT22;44236;48.098;11.582;2023-02-18T17:11:38;20.00;43.20
41644;DHT22;44236;48.098;11.582;2023-02-18T17:14:03;20.00;43.30
41644;DHT22;44236;48.098;11.582;2023-02-18T17:16:29;20.00;43.30
41644;DHT22;44236;48.098;11.582;2023-02-18T17:18:56;20.00;43.40
41644;DHT22;44236;48.098;11.582;2023-02-18T17:21:23;20.10;43.50
41644;DHT22;44236;48.098;11.582;2023-02-18T17:23:49;20.00;43.50
41644;DHT22;44236;48.098;11.582;2023-02-18T17:26:25;20.10;46.00
41644;DHT22;44236;48.098;11.582;2023-02-18T17:28:52;20.20;46.10
41644;DHT22;44236;48.098;11.582;2023-02-18T17:31:23;20.20;50.50
41644;DHT22;44236;48.098;11.582;2023-02-18T17:33:51;20.20;47.90
41644;DHT22;44236;48.098;11.582;2023-02-18T17:36:17;20.20;46.40
41644;DHT22;44236;48.098;11.582;2023-02-18T17:38:43;20.20;47.40
41644;DHT22;44236;48.098;11.582;2023-02-18T17:41:10;20.30;45.60
41644;DHT22;44236;48.098;11.582;2023-02-18T17:43:37;20.20;46.30
41644;DHT22;44236;48.098;11.582;2023-02-18T17:46:03;20.20;45.50
41644;DHT22;44236;48.098;11.582;2023-02-18T17:48:29;20.20;46.20
41644;DHT22;44236;48.098;11.582;2023-02-18T17:50:55;20.30;46.00
41644;DHT22;44236;48.098;11.582;2023-02-18T17:53:21;20.30;46.40
41644;DHT22;44236;48.098;11.582;2023-02-18T17:55:47;20.30;44.80
41644;DHT22;44236;48.098;11.582;2023-02-18T17:58:13;20.40;45.40